Time;durP1;ratioP1;P1;durP2;ratioP2;P2;SDS_P1;SDS_P2;PMS_P1;PMS_P2;Temp;Humidity;BMP_temperature;BMP_pressure;BME280_temperature;BME280_humidity;BME280_pressure;Samples;Min_cycle;Max_cycle;Signal;HPM_P1;HPM_P2
2021/05/23 00:02:07;;;;;;;0.10;0.10;;;;;;;;;;5051420;28;20112;-84
2021/05/23 00:04:33;;;;;;;0.10;0.10;;;;;;;;;;5034799;28;20295;-85
2021/05/23 00:06:59;;;;;;;0.10;0.10;;;;;;;;;;5034786;28;20437;-84
2021/05/23 00:09:25;;;;;;;0.10;0.10;;;;;;;;;;5051262;28;20064;-84
2021/05/23 00:11:51;;;;;;;0.10;0.10;;;;;;;;;;5051347;28;20435;-85
2021/05/23 00:14:21;;;;;;;0.10;0.10;;;;;;;;;;5034587;28;20041;-85
2021/05/23 00:16:47;;;;;;;0.10;0.10;;;;;;;;;;5051048;28;20033;-85
2021/05/23 00:19:13;;;;;;;0.10;0.10;;;;;;;;;;5050790;28;20064;-85
2021/05/23 00:21:39;;;;;;;0.10;0.10;;;;;;;;;;5052280;28;20048;-85
2021/05/23 00:24:05;;;;;;;0.10;0.10;;;;;;;;;;5050986;28;20037;-85
2021/05/23 00:26:32;;;;;;;0.10;0.10;;;;;;;;;;5050881;28;20082;-85
2021/05/23 00:28:58;;;;;;;0.10;0.10;;;;;;;;;;5050997;28;20040;-85
2021/05/23 00:31:24;;;;;;;0.10;0.10;;;;;;;;;;5051066;28;20505;-85
2021/05/23 00:33:50;;;;;;;0.10;0.10;;;;;;;;;;5050881;28;20401;-85
2021/05/23 00:36:16;;;;;;;0.10;0.10;;;;;;;;;;5050891;28;20041;-85
2021/05/23 00:38:44;;;;;;;0.10;0.10;;;;;;;;;;5050704;28;20041;-85
2021/05/23 00:41:10;;;;;;;0.10;0.10;;;;;;;;;;5050859;28;20045;-85
2021/05/23 00:43:36;;;;;;;0.10;0.10;;;;;;;;;;5051897;28;20033;-86
2021/05/23 00:46:04;;;;;;;0.10;0.10;;;;;;;;;;5034438;28;20045;-86
2021/05/23 00:48:30;;;;;;;0.10;0.10;;;;;;;;;;5034418;28;20041;-86
2021/05/23 00:50:56;;;;;;;0.10;0.10;;;;;;;;;;5051076;28;20041;-85
2021/05/23 00:53:22;;;;;;;0.10;0.10;;;;;;;;;;5050903;28;20572;-86
2021/05/23 00:55:48;;;;;;;0.10;0.10;;;;;;;;;;5050626;28;20123;-85
2021/05/23 00:58:15;;;;;;;0.10;0.10;;;;;;;;;;5050628;28;20041;-86
2021/05/23 01:00:41;;;;;;;0.10;0.10;;;;;;;;;;5051935;28;20037;-91
2021/05/23 01:03:29;;;;;;;0.10;0.10;;;;;;;;;;5050992;28;20116;-85
2021/05/23 01:05:56;;;;;;;0.10;0.10;;;;;;;;;;5051980;28;20037;-85
2021/05/23 01:08:22;;;;;;;0.10;0.10;;;;;;;;;;5051632;28;20044;-85
2021/05/23 01:10:52;;;;;;;0.10;0.10;;;;;;;;;;5034073;28;20048;-85
2021/05/23 01:13:37;;;;;;;0.10;0.10;;;;;;;;;;5034105;28;20123;-85
2021/05/23 01:16:26;;;;;;;0.10;0.10;;;;;;;;;;5050433;28;20090;-85
2021/05/23 01:19:11;;;;;;;0.10;0.10;;;;;;;;;;5051211;28;20127;-85
2021/05/23 01:21:39;;;;;;;0.10;0.10;;;;;;;;;;5051643;28;20033;-85
2021/05/23 01:24:07;;;;;;;0.10;0.10;;;;;;;;;;5050326;28;20044;-85
2021/05/23 01:26:34;;;;;;;0.10;0.10;;;;;;;;;;5050470;28;20374;-85
2021/05/23 01:29:04;;;;;;;0.10;0.10;;;;;;;;;;5050355;28;20079;-85
2021/05/23 01:31:30;;;;;;;0.10;0.10;;;;;;;;;;5052298;28;20123;-83
2021/05/23 01:33:56;;;;;;;0.10;0.10;;;;;;;;;;5054344;28;20476;-85
2021/05/23 01:36:23;;;;;;;0.10;0.10;;;;;;;;;;5037436;28;20049;-85
2021/05/23 01:38:49;;;;;;;0.10;0.10;;;;;;;;;;5037320;28;20497;-85
2021/05/23 01:41:15;;;;;;;0.10;0.10;;;;;;;;;;5037561;28;20087;-85
2021/05/23 01:43:41;;;;;;;0.10;0.10;;;;;;;;;;5053809;28;20043;-85
2021/05/23 01:46:09;;;;;;;0.10;0.10;;;;;;;;;;5053890;28;20095;-85
2021/05/23 01:48:36;;;;;;;0.10;0.10;;;;;;;;;;5053798;28;20047;-85
2021/05/23 01:51:02;;;;;;;0.10;0.10;;;;;;;;;;5037395;28;20047;-85
2021/05/23 01:53:28;;;;;;;0.10;0.10;;;;;;;;;;5053961;28;20044;-85
2021/05/23 01:55:54;;;;;;;0.10;0.10;;;;;;;;;;5053689;28;20140;-85
2021/05/23 01:58:20;;;;;;;0.10;0.10;;;;;;;;;;5054743;28;20071;-85
2021/05/23 02:00:47;;;;;;;0.10;0.10;;;;;;;;;;5037129;28;20049;-84
2021/05/23 02:03:13;;;;;;;0.10;0.10;;;;;;;;;;5037182;28;20067;-85
2021/05/23 02:05:41;;;;;;;0.10;0.10;;;;;;;;;;5053640;28;20047;-85
2021/05/23 02:08:08;;;;;;;0.10;0.10;;;;;;;;;;5036917;28;20125;-85
2021/05/23 02:10:34;;;;;;;0.10;0.10;;;;;;;;;;5053655;28;20393;-85
2021/05/23 02:13:03;;;;;;;0.10;0.10;;;;;;;;;;5054727;28;20060;-84
2021/05/23 02:15:29;;;;;;;0.10;0.10;;;;;;;;;;5037014;28;20056;-83
2021/05/23 02:17:55;;;;;;;0.10;0.10;;;;;;;;;;5036788;28;20037;-83
2021/05/23 02:20:22;;;;;;;0.10;0.10;;;;;;;;;;5053312;28;20033;-84
2021/05/23 02:22:49;;;;;;;0.10;0.10;;;;;;;;;;5054417;28;20098;-84
2021/05/23 02:25:16;;;;;;;0.10;0.10;;;;;;;;;;5053265;28;20201;-84
2021/05/23 02:27:46;;;;;;;0.10;0.10;;;;;;;;;;5036682;28;20033;-84
2021/05/23 02:30:13;;;;;;;0.10;0.10;;;;;;;;;;5036616;28;20048;-84
2021/05/23 02:32:39;;;;;;;0.10;0.10;;;;;;;;;;5053124;28;20119;-84
2021/05/23 02:35:06;;;;;;;0.10;0.10;;;;;;;;;;5054316;28;20163;-84
2021/05/23 02:37:32;;;;;;;0.10;0.10;;;;;;;;;;5054135;28;20404;-84
2021/05/23 02:39:58;;;;;;;0.10;0.10;;;;;;;;;;5052829;28;20045;-85
2021/05/23 02:42:24;;;;;;;0.10;0.10;;;;;;;;;;5052639;28;20112;-85
2021/05/23 02:44:50;;;;;;;0.10;0.10;;;;;;;;;;5052811;28;20519;-85
2021/05/23 02:47:18;;;;;;;0.10;0.10;;;;;;;;;;5036578;28;20479;-85
2021/05/23 02:49:44;;;;;;;0.10;0.10;;;;;;;;;;5036320;28;20573;-85
2021/05/23 02:52:11;;;;;;;0.10;0.10;;;;;;;;;;5052756;28;20032;-85
2021/05/23 02:54:37;;;;;;;0.10;0.10;;;;;;;;;;5052632;28;20048;-85
2021/05/23 02:57:04;;;;;;;0.10;0.10;;;;;;;;;;5052689;28;20052;-85
2021/05/23 02:59:30;;;;;;;0.10;0.10;;;;;;;;;;5053924;28;20455;-84
2021/05/23 03:01:56;;;;;;;0.10;0.10;;;;;;;;;;5053706;28;20065;-84
2021/05/23 03:04:22;;;;;;;0.10;0.10;;;;;;;;;;5035904;28;20044;-84
2021/05/23 03:06:48;;;;;;;0.10;0.10;;;;;;;;;;5035850;28;20041;-84
2021/05/23 03:09:14;;;;;;;0.10;0.10;;;;;;;;;;5052342;28;20040;-85
2021/05/23 03:11:41;;;;;;;0.10;0.10;;;;;;;;;;5052397;28;20086;-85
2021/05/23 03:14:07;;;;;;;0.10;0.10;;;;;;;;;;5052279;28;20083;-84
2021/05/23 03:16:33;;;;;;;0.10;0.10;;;;;;;;;;5052357;28;20401;-85
2021/05/23 03:18:59;;;;;;;0.10;0.10;;;;;;;;;;5052254;28;20037;-84
2021/05/23 03:21:25;;;;;;;0.10;0.10;;;;;;;;;;5052124;28;20041;-84
2021/05/23 03:23:53;;;;;;;0.10;0.10;;;;;;;;;;5052022;28;20107;-84
2021/05/23 03:26:19;;;;;;;0.10;0.10;;;;;;;;;;5053204;28;20091;-84
2021/05/23 03:28:45;;;;;;;0.10;0.10;;;;;;;;;;5053202;28;20116;-83
2021/05/23 03:31:12;;;;;;;0.10;0.10;;;;;;;;;;5051980;28;20400;-84
2021/05/23 03:33:38;;;;;;;0.10;0.10;;;;;;;;;;5051546;28;20130;-84
2021/05/23 03:36:04;;;;;;;0.10;0.10;;;;;;;;;;5051927;28;20044;-84
2021/05/23 03:38:30;;;;;;;0.10;0.10;;;;;;;;;;5051636;28;20534;-84
2021/05/23 03:40:56;;;;;;;0.10;0.10;;;;;;;;;;5051863;28;20418;-84
2021/05/23 03:43:23;;;;;;;0.10;0.10;;;;;;;;;;5035183;28;20072;-84
2021/05/23 03:45:49;;;;;;;0.10;0.10;;;;;;;;;;5035187;28;20036;-81
2021/05/23 03:48:15;;;;;;;0.10;0.10;;;;;;;;;;5051554;28;20045;-84
2021/05/23 03:50:42;;;;;;;0.10;0.10;;;;;;;;;;5051502;28;20491;-84
2021/05/23 03:53:08;;;;;;;0.10;0.10;;;;;;;;;;5052354;28;20439;-84
2021/05/23 03:55:34;;;;;;;0.10;0.10;;;;;;;;;;5051467;28;20037;-84
2021/05/23 03:58:00;;;;;;;0.10;0.10;;;;;;;;;;5051414;28;20068;-84
2021/05/23 04:00:26;;;;;;;0.10;0.10;;;;;;;;;;5034866;28;20037;-84
2021/05/23 04:02:56;;;;;;;0.10;0.10;;;;;;;;;;5051299;28;20041;-85
2021/05/23 04:05:22;;;;;;;0.10;0.10;;;;;;;;;;5051317;28;20472;-85
2021/05/23 04:07:49;;;;;;;0.10;0.10;;;;;;;;;;5051188;28;20037;-85
2021/05/23 04:10:18;;;;;;;0.10;0.10;;;;;;;;;;5034836;28;20036;-85
2021/05/23 04:12:46;;;;;;;0.10;0.10;;;;;;;;;;5035015;28;20041;-85
2021/05/23 04:15:12;;;;;;;0.10;0.10;;;;;;;;;;5051109;28;20477;-85
2021/05/23 04:17:39;;;;;;;0.10;0.10;;;;;;;;;;5051347;28;20037;-85
2021/05/23 04:20:08;;;;;;;0.10;0.10;;;;;;;;;;5051215;28;20044;-84
2021/05/23 04:22:35;;;;;;;0.10;0.10;;;;;;;;;;5034616;28;20170;-84
2021/05/23 04:25:01;;;;;;;0.10;0.10;;;;;;;;;;5051096;28;20040;-84
2021/05/23 04:27:27;;;;;;;0.10;0.10;;;;;;;;;;5051028;28;20044;-85
2021/05/23 04:29:53;;;;;;;0.10;0.10;;;;;;;;;;5052223;28;20048;-85
2021/05/23 04:32:19;;;;;;;0.10;0.10;;;;;;;;;;5050911;28;20384;-85
2021/05/23 04:34:45;;;;;;;0.10;0.10;;;;;;;;;;5050971;28;20037;-85
2021/05/23 04:37:11;;;;;;;0.10;0.10;;;;;;;;;;5050683;28;20059;-85
2021/05/23 04:39:37;;;;;;;0.10;0.10;;;;;;;;;;5051041;28;20033;-84
2021/05/23 04:42:03;;;;;;;0.10;0.10;;;;;;;;;;5050849;28;20452;-84
2021/05/23 04:44:29;;;;;;;0.10;0.10;;;;;;;;;;5052404;28;20045;-84
2021/05/23 04:46:55;;;;;;;0.10;0.10;;;;;;;;;;5051889;28;20095;-85
2021/05/23 04:49:23;;;;;;;0.10;0.10;;;;;;;;;;5050787;28;20106;-85
2021/05/23 04:51:49;;;;;;;0.10;0.10;;;;;;;;;;5034245;28;20041;-85
2021/05/23 04:54:15;;;;;;;0.10;0.10;;;;;;;;;;5034281;28;20049;-85
2021/05/23 04:56:41;;;;;;;0.10;0.10;;;;;;;;;;5050743;28;20128;-85
2021/05/23 04:59:07;;;;;;;0.10;0.10;;;;;;;;;;5050828;28;20037;-84
2021/05/23 05:01:33;;;;;;;0.20;0.20;;;;;;;;;;5050438;28;20044;-85
2021/05/23 05:03:59;;;;;;;0.10;0.10;;;;;;;;;;5050613;28;20408;-85
2021/05/23 05:06:25;;;;;;;0.10;0.10;;;;;;;;;;5054142;28;20430;-85
2021/05/23 05:08:51;;;;;;;0.10;0.10;;;;;;;;;;5038108;28;20032;-85
2021/05/23 05:11:17;;;;;;;0.10;0.10;;;;;;;;;;5055864;28;20066;-84
2021/05/23 05:13:43;;;;;;;0.10;0.10;;;;;;;;;;5054605;28;20506;-85
2021/05/23 05:16:10;;;;;;;0.10;0.10;;;;;;;;;;5037935;28;20048;-86
2021/05/23 05:18:36;;;;;;;0.10;0.10;;;;;;;;;;5037967;28;20041;-84
2021/05/23 05:21:02;;;;;;;0.10;0.10;;;;;;;;;;5054435;28;20033;-83
2021/05/23 05:23:29;;;;;;;0.20;0.20;;;;;;;;;;5054308;28;20039;-84
2021/05/23 05:25:55;;;;;;;0.10;0.10;;;;;;;;;;5055488;28;20130;-84
2021/05/23 05:28:21;;;;;;;0.10;0.10;;;;;;;;;;5055406;28;20397;-83
2021/05/23 05:30:47;;;;;;;0.10;0.10;;;;;;;;;;5037606;28;20036;-84
2021/05/23 05:33:13;;;;;;;0.10;0.10;;;;;;;;;;5055473;28;20044;-84
2021/05/23 05:35:39;;;;;;;0.10;0.10;;;;;;;;;;5037845;28;20037;-84
2021/05/23 05:38:06;;;;;;;0.10;0.10;;;;;;;;;;5053790;28;20052;-84
2021/05/23 05:40:32;;;;;;;0.10;0.10;;;;;;;;;;5054055;28;20041;-84
2021/05/23 05:42:58;;;;;;;0.10;0.10;;;;;;;;;;5053962;28;20075;-84
2021/05/23 05:45:24;;;;;;;0.10;0.10;;;;;;;;;;5053900;28;20053;-84
2021/05/23 05:47:50;;;;;;;0.10;0.10;;;;;;;;;;5053859;28;20037;-84
2021/05/23 05:50:17;;;;;;;0.10;0.10;;;;;;;;;;5053847;28;20071;-87
2021/05/23 05:52:43;;;;;;;0.10;0.10;;;;;;;;;;5055115;28;20033;-83
2021/05/23 05:55:10;;;;;;;0.10;0.10;;;;;;;;;;5053946;28;20102;-83
2021/05/23 05:57:36;;;;;;;0.10;0.10;;;;;;;;;;5054826;28;20076;-83
2021/05/23 06:00:02;;;;;;;0.10;0.10;;;;;;;;;;5054770;28;20068;-83
2021/05/23 06:02:28;;;;;;;0.10;0.10;;;;;;;;;;5053722;28;20036;-83
2021/05/23 06:04:54;;;;;;;0.10;0.10;;;;;;;;;;5037079;28;20118;-83
2021/05/23 06:07:20;;;;;;;0.10;0.10;;;;;;;;;;5053521;28;20477;-83
2021/05/23 06:09:46;;;;;;;0.10;0.10;;;;;;;;;;5054672;28;20037;-83
2021/05/23 06:12:12;;;;;;;0.10;0.10;;;;;;;;;;5054809;28;20041;-83
2021/05/23 06:14:38;;;;;;;0.10;0.10;;;;;;;;;;5053405;28;20044;-83
2021/05/23 06:17:04;;;;;;;0.10;0.10;;;;;;;;;;5053836;28;20049;-83
2021/05/23 06:19:30;;;;;;;0.10;0.10;;;;;;;;;;5054567;28;20131;-82
2021/05/23 06:21:56;;;;;;;0.10;0.10;;;;;;;;;;5054556;28;20116;-83
2021/05/23 06:24:22;;;;;;;0.10;0.10;;;;;;;;;;5054349;28;20045;-82
2021/05/23 06:26:48;;;;;;;0.10;0.10;;;;;;;;;;5053272;28;20033;-82
2021/05/23 06:29:14;;;;;;;0.10;0.10;;;;;;;;;;5054401;28;20049;-83
2021/05/23 06:31:40;;;;;;;0.10;0.10;;;;;;;;;;5054288;28;20092;-82
2021/05/23 06:34:06;;;;;;;0.10;0.10;;;;;;;;;;5053059;28;20069;-82
2021/05/23 06:36:32;;;;;;;0.10;0.10;;;;;;;;;;5054146;28;20033;-82
2021/05/23 06:38:58;;;;;;;0.10;0.10;;;;;;;;;;5054048;28;20123;-83
2021/05/23 06:41:24;;;;;;;0.10;0.10;;;;;;;;;;5054135;28;20052;-82
2021/05/23 06:43:50;;;;;;;0.10;0.10;;;;;;;;;;5036284;28;20041;-84
2021/05/23 06:46:16;;;;;;;0.10;0.10;;;;;;;;;;5053030;28;20037;-83
2021/05/23 06:48:42;;;;;;;0.10;0.10;;;;;;;;;;5036240;28;20045;-83
2021/05/23 06:51:09;;;;;;;0.10;0.10;;;;;;;;;;5054014;28;20040;-83
2021/05/23 06:53:35;;;;;;;0.10;0.10;;;;;;;;;;5052704;28;20045;-83
2021/05/23 06:56:01;;;;;;;0.10;0.10;;;;;;;;;;5052674;28;20113;-83
2021/05/23 06:58:27;;;;;;;0.10;0.10;;;;;;;;;;5053648;28;20066;-84
2021/05/23 07:00:53;;;;;;;0.10;0.10;;;;;;;;;;5053855;28;20071;-84
2021/05/23 07:03:19;;;;;;;0.10;0.10;;;;;;;;;;5052490;28;20377;-86
2021/05/23 07:05:45;;;;;;;0.10;0.10;;;;;;;;;;5052602;28;20088;-83
2021/05/23 07:08:11;;;;;;;0.10;0.10;;;;;;;;;;5053198;28;20037;-84
2021/05/23 07:10:37;;;;;;;0.10;0.10;;;;;;;;;;5018711;28;20419;-85
2021/05/23 07:13:03;;;;;;;0.10;0.10;;;;;;;;;;5035661;28;20064;-84
2021/05/23 07:15:29;;;;;;;0.10;0.10;;;;;;;;;;5052133;28;20044;-84
2021/05/23 07:17:58;;;;;;;0.10;0.10;;;;;;;;;;5053397;28;20039;-83
2021/05/23 07:20:24;;;;;;;0.10;0.10;;;;;;;;;;5035911;28;20144;-84
2021/05/23 07:22:50;;;;;;;0.10;0.10;;;;;;;;;;5035373;28;20443;-83
2021/05/23 07:25:16;;;;;;;0.10;0.10;;;;;;;;;;5051958;28;20113;-85
2021/05/23 07:27:42;;;;;;;0.10;0.10;;;;;;;;;;5036772;28;20104;-86
2021/05/23 07:30:08;;;;;;;0.10;0.10;;;;;;;;;;5034961;28;20070;-84
2021/05/23 07:32:34;;;;;;;0.10;0.10;;;;;;;;;;5052199;28;20041;-83
2021/05/23 07:35:00;;;;;;;0.10;0.10;;;;;;;;;;5051796;28;20040;-85
2021/05/23 07:37:26;;;;;;;0.10;0.10;;;;;;;;;;5051617;28;20137;-85
2021/05/23 07:39:52;;;;;;;0.10;0.10;;;;;;;;;;5051659;28;20041;-85
2021/05/23 07:42:18;;;;;;;0.10;0.10;;;;;;;;;;5051927;28;20059;-85
2021/05/23 07:44:44;;;;;;;0.20;0.20;;;;;;;;;;5051648;28;20063;-84
2021/05/23 07:47:10;;;;;;;0.10;0.10;;;;;;;;;;5051511;28;20041;-85
2021/05/23 07:49:40;;;;;;;0.10;0.10;;;;;;;;;;5051612;28;20115;-86
2021/05/23 07:52:08;;;;;;;0.10;0.10;;;;;;;;;;5048048;28;20044;-85
2021/05/23 07:54:35;;;;;;;0.85;0.47;;;;;;;;;;5070955;28;20119;-85
2021/05/23 07:57:01;;;;;;;0.10;0.10;;;;;;;;;;5071344;28;20037;-84
2021/05/23 07:59:28;;;;;;;0.10;0.10;;;;;;;;;;5070600;28;20454;-85
2021/05/23 08:01:54;;;;;;;0.10;0.10;;;;;;;;;;5072548;28;20344;-86
2021/05/23 08:04:20;;;;;;;0.10;0.10;;;;;;;;;;5071215;28;20041;-85
2021/05/23 08:06:46;;;;;;;0.10;0.10;;;;;;;;;;5051220;28;20466;-85
2021/05/23 08:09:12;;;;;;;0.10;0.10;;;;;;;;;;5051111;28;20136;-85
2021/05/23 08:11:38;;;;;;;0.10;0.10;;;;;;;;;;5034722;28;20112;-85
2021/05/23 08:14:04;;;;;;;0.10;0.10;;;;;;;;;;5051109;28;20146;-85
2021/05/23 08:16:30;;;;;;;0.10;0.10;;;;;;;;;;5051021;28;20037;-85
2021/05/23 08:18:56;;;;;;;0.10;0.10;;;;;;;;;;5051073;28;20033;-85
2021/05/23 08:21:22;;;;;;;0.10;0.10;;;;;;;;;;5051191;28;20064;-85
2021/05/23 08:23:48;;;;;;;0.10;0.10;;;;;;;;;;5034137;28;20065;-86
2021/05/23 08:26:14;;;;;;;0.50;0.50;;;;;;;;;;5034393;28;20476;-85
2021/05/23 08:28:40;;;;;;;0.10;0.10;;;;;;;;;;5050844;28;20472;-86
2021/05/23 08:31:06;;;;;;;0.10;0.10;;;;;;;;;;5050840;28;20040;-84
2021/05/23 08:33:32;;;;;;;0.20;0.20;;;;;;;;;;5050894;28;20037;-85
2021/05/23 08:35:58;;;;;;;0.10;0.10;;;;;;;;;;5050795;28;20037;-85
2021/05/23 08:38:24;;;;;;;0.10;0.10;;;;;;;;;;5050422;28;20128;-84
2021/05/23 08:40:51;;;;;;;0.10;0.10;;;;;;;;;;5051574;28;20041;-86
2021/05/23 08:43:19;;;;;;;0.10;0.10;;;;;;;;;;5051759;28;20036;-85
2021/05/23 08:45:45;;;;;;;0.30;0.20;;;;;;;;;;5034373;28;20044;-84
2021/05/23 08:48:11;;;;;;;0.20;0.20;;;;;;;;;;5050493;28;20401;-84
2021/05/23 08:50:37;;;;;;;0.10;0.10;;;;;;;;;;5034004;28;20045;-83
2021/05/23 08:53:05;;;;;;;0.10;0.10;;;;;;;;;;5050413;28;20056;-84
2021/05/23 08:55:31;;;;;;;0.20;0.20;;;;;;;;;;5050545;28;20069;-84
2021/05/23 08:57:59;;;;;;;0.20;0.20;;;;;;;;;;5050506;28;20041;-83
2021/05/23 09:00:25;;;;;;;0.10;0.10;;;;;;;;;;5044228;28;20040;-84
2021/05/23 09:02:52;;;;;;;0.20;0.20;;;;;;;;;;5052622;28;20080;-83
2021/05/23 09:05:31;;;;;;;0.10;0.10;;;;;;;;;;5070445;28;20036;-83
2021/05/23 09:07:57;;;;;;;0.10;0.10;;;;;;;;;;5071533;28;20086;-83
2021/05/23 09:10:27;;;;;;;0.20;0.20;;;;;;;;;;5071833;28;20036;-83
2021/05/23 09:12:53;;;;;;;0.10;0.10;;;;;;;;;;5053976;28;20036;-84
2021/05/23 09:15:19;;;;;;;0.10;0.10;;;;;;;;;;5069114;28;20393;-83
2021/05/23 09:17:45;;;;;;;0.10;0.10;;;;;;;;;;5086270;28;20430;-83
2021/05/23 09:20:19;;;;;;;0.10;0.10;;;;;;;;;;5053251;28;20041;-84
2021/05/23 09:22:51;;;;;;;0.20;0.20;;;;;;;;;;5071317;28;20036;-83
2021/05/23 09:25:27;;;;;;;0.10;0.10;;;;;;;;;;5070201;28;20044;-84
2021/05/23 09:27:53;;;;;;;0.10;0.10;;;;;;;;;;5071564;28;20037;-84
2021/05/23 09:30:22;;;;;;;0.10;0.10;;;;;;;;;;5087087;28;20037;-83
2021/05/23 09:32:49;;;;;;;0.10;0.10;;;;;;;;;;5069206;28;20105;-83
2021/05/23 09:35:16;;;;;;;0.10;0.10;;;;;;;;;;5053883;28;20123;-83
2021/05/23 09:37:42;;;;;;;0.20;0.20;;;;;;;;;;5053415;28;20072;-83
2021/05/23 09:40:16;;;;;;;0.15;0.15;;;;;;;;;;5069485;28;20045;-83
2021/05/23 09:42:48;;;;;;;0.47;0.47;;;;;;;;;;5069111;28;20037;-84
2021/05/23 09:45:15;;;;;;;0.20;0.20;;;;;;;;;;5070314;28;20041;-83
2021/05/23 09:47:57;;;;;;;0.20;0.20;;;;;;;;;;5053586;28;20041;-84
2021/05/23 09:50:36;;;;;;;0.15;0.15;;;;;;;;;;5070374;28;20041;-83
2021/05/23 09:53:03;;;;;;;0.10;0.10;;;;;;;;;;5072785;28;20111;-83
2021/05/23 09:55:30;;;;;;;0.10;0.10;;;;;;;;;;5074899;28;20471;-83
2021/05/23 09:57:56;;;;;;;0.10;0.10;;;;;;;;;;5057328;28;20368;-83
2021/05/23 10:00:22;;;;;;;0.10;0.10;;;;;;;;;;5073756;28;20093;-83
2021/05/23 10:02:55;;;;;;;0.20;0.20;;;;;;;;;;5057040;28;20047;-83
2021/05/23 10:05:21;;;;;;;0.10;0.10;;;;;;;;;;5073680;28;20498;-84
2021/05/23 10:07:47;;;;;;;0.10;0.10;;;;;;;;;;5073475;28;20119;-83
2021/05/23 10:10:13;;;;;;;0.10;0.10;;;;;;;;;;5056951;28;20480;-83
2021/05/23 10:12:39;;;;;;;0.13;0.13;;;;;;;;;;5073684;28;20042;-83
2021/05/23 10:15:07;;;;;;;0.40;0.40;;;;;;;;;;5056909;28;20043;-83
2021/05/23 10:17:36;;;;;;;0.10;0.10;;;;;;;;;;5056879;28;20399;-84
2021/05/23 10:20:03;;;;;;;0.15;0.13;;;;;;;;;;5054176;28;20061;-83
2021/05/23 10:22:32;;;;;;;0.10;0.10;;;;;;;;;;5089935;28;20436;-85
2021/05/23 10:24:59;;;;;;;0.10;0.10;;;;;;;;;;5089991;28;20036;-83
2021/05/23 10:27:25;;;;;;;0.10;0.10;;;;;;;;;;5090192;28;20537;-83
2021/05/23 10:29:55;;;;;;;0.10;0.10;;;;;;;;;;5089732;28;20068;-83
2021/05/23 10:32:21;;;;;;;0.10;0.10;;;;;;;;;;5073091;28;20480;-83
2021/05/23 10:34:48;;;;;;;0.20;0.20;;;;;;;;;;5074273;28;20096;-83
2021/05/23 10:37:18;;;;;;;0.20;0.20;;;;;;;;;;5072700;28;20143;-83
2021/05/23 10:39:51;;;;;;;0.10;0.10;;;;;;;;;;5074388;28;20047;-83
2021/05/23 10:42:17;;;;;;;0.10;0.10;;;;;;;;;;5073029;28;20064;-84
2021/05/23 10:44:46;;;;;;;0.25;0.25;;;;;;;;;;5074051;28;20068;-83
2021/05/23 10:47:17;;;;;;;0.10;0.10;;;;;;;;;;5072830;28;20136;-83
2021/05/23 10:49:50;;;;;;;0.10;0.10;;;;;;;;;;5073111;28;20071;-83
2021/05/23 10:52:16;;;;;;;0.10;0.10;;;;;;;;;;5072802;28;20059;-83
2021/05/23 10:54:54;;;;;;;0.10;0.10;;;;;;;;;;5072692;28;20048;-83
2021/05/23 10:57:21;;;;;;;0.10;0.10;;;;;;;;;;5072713;28;20503;-83
2021/05/23 11:00:00;;;;;;;0.10;0.10;;;;;;;;;;5072498;28;20048;-82
2021/05/23 11:02:35;;;;;;;0.20;0.20;;;;;;;;;;5073580;28;20037;-83
2021/05/23 11:05:06;;;;;;;0.10;0.10;;;;;;;;;;5055939;28;20067;-82
2021/05/23 11:07:32;;;;;;;0.10;0.10;;;;;;;;;;5055688;28;20385;-82
2021/05/23 11:10:00;;;;;;;0.10;0.10;;;;;;;;;;5073582;28;20480;-82
2021/05/23 11:12:26;;;;;;;0.10;0.10;;;;;;;;;;5072044;28;20067;-82
2021/05/23 11:14:55;;;;;;;0.10;0.10;;;;;;;;;;5072135;28;20512;-83
2021/05/23 11:17:22;;;;;;;0.10;0.10;;;;;;;;;;5072205;28;20087;-83
2021/05/23 11:19:48;;;;;;;0.10;0.10;;;;;;;;;;5072365;28;20503;-84
2021/05/23 11:22:14;;;;;;;0.10;0.10;;;;;;;;;;5072298;28;20093;-83
2021/05/23 11:24:44;;;;;;;0.20;0.20;;;;;;;;;;5072108;28;20041;-84
2021/05/23 11:27:14;;;;;;;0.10;0.10;;;;;;;;;;5055621;28;20050;-83
2021/05/23 11:29:46;;;;;;;0.10;0.10;;;;;;;;;;5072190;28;20040;-83
2021/05/23 11:32:12;;;;;;;0.10;0.10;;;;;;;;;;5071951;28;20483;-83
2021/05/23 11:34:38;;;;;;;0.10;0.10;;;;;;;;;;5055381;28;20040;-83
2021/05/23 11:37:04;;;;;;;0.10;0.10;;;;;;;;;;5052112;28;20044;-85
2021/05/23 11:39:31;;;;;;;0.10;0.10;;;;;;;;;;5088745;28;20062;-84
2021/05/23 11:41:58;;;;;;;0.10;0.10;;;;;;;;;;5072863;28;20077;-84
2021/05/23 11:44:41;;;;;;;0.10;0.10;;;;;;;;;;5072895;28;20046;-84
2021/05/23 11:47:07;;;;;;;0.30;0.30;;;;;;;;;;5071813;28;20071;-83
2021/05/23 11:49:34;;;;;;;0.10;0.10;;;;;;;;;;5088431;28;20048;-84
2021/05/23 11:52:01;;;;;;;0.10;0.10;;;;;;;;;;5071463;28;20076;-84
2021/05/23 11:54:27;;;;;;;0.10;0.10;;;;;;;;;;5072672;28;20048;-83
2021/05/23 11:56:53;;;;;;;0.10;0.10;;;;;;;;;;5072520;28;20067;-83
2021/05/23 11:59:20;;;;;;;0.10;0.10;;;;;;;;;;5087853;28;20048;-83
2021/05/23 12:01:48;;;;;;;0.10;0.10;;;;;;;;;;5054969;28;20047;-83
2021/05/23 12:04:15;;;;;;;0.10;0.10;;;;;;;;;;5071264;28;20476;-83
2021/05/23 12:06:42;;;;;;;0.10;0.10;;;;;;;;;;5054385;28;20400;-85
2021/05/23 12:09:15;;;;;;;0.10;0.10;;;;;;;;;;5071265;28;20487;-85
2021/05/23 12:11:42;;;;;;;0.10;0.10;;;;;;;;;;5071238;28;20107;-84
2021/05/23 12:14:18;;;;;;;0.10;0.10;;;;;;;;;;5070904;28;20063;-84
2021/05/23 12:16:44;;;;;;;0.85;0.63;;;;;;;;;;5054511;28;20381;-84
2021/05/23 12:19:10;;;;;;;0.20;0.20;;;;;;;;;;5072086;28;20115;-84
2021/05/23 12:21:36;;;;;;;0.10;0.10;;;;;;;;;;5054582;28;20058;-85
2021/05/23 12:24:02;;;;;;;0.10;0.10;;;;;;;;;;5071073;28;20440;-84
2021/05/23 12:26:29;;;;;;;0.10;0.10;;;;;;;;;;5072122;28;20033;-84
2021/05/23 12:28:55;;;;;;;0.10;0.10;;;;;;;;;;5054522;28;20123;-83
2021/05/23 12:31:22;;;;;;;0.10;0.10;;;;;;;;;;5070992;28;20133;-83
2021/05/23 12:33:49;;;;;;;0.20;0.20;;;;;;;;;;5070840;28;20491;-84
2021/05/23 12:36:15;;;;;;;0.20;0.20;;;;;;;;;;5070944;28;20032;-83
2021/05/23 12:38:42;;;;;;;0.10;0.10;;;;;;;;;;5071933;28;20053;-83
2021/05/23 12:41:11;;;;;;;0.10;0.10;;;;;;;;;;5054296;28;20032;-83
2021/05/23 12:43:38;;;;;;;0.10;0.10;;;;;;;;;;5054827;28;20407;-81
2021/05/23 12:46:08;;;;;;;0.10;0.10;;;;;;;;;;5070786;28;20047;-84
2021/05/23 12:48:35;;;;;;;0.10;0.10;;;;;;;;;;5072195;28;20037;-83
2021/05/23 12:51:01;;;;;;;0.10;0.10;;;;;;;;;;5070750;28;20041;-83
2021/05/23 12:53:31;;;;;;;0.10;0.10;;;;;;;;;;5070808;28;20040;-83
2021/05/23 12:56:08;;;;;;;0.10;0.10;;;;;;;;;;5070713;28;20112;-83
2021/05/23 12:59:00;;;;;;;0.10;0.10;;;;;;;;;;5070899;28;20064;-83
2021/05/23 13:01:28;;;;;;;0.10;0.10;;;;;;;;;;5071401;28;20044;-83
2021/05/23 13:03:54;;;;;;;0.25;0.25;;;;;;;;;;5054056;28;20048;-83
2021/05/23 13:06:21;;;;;;;0.10;0.10;;;;;;;;;;5071854;28;20067;-83
2021/05/23 13:08:54;;;;;;;0.10;0.10;;;;;;;;;;5070664;28;20037;-83
2021/05/23 13:11:20;;;;;;;0.10;0.10;;;;;;;;;;5070905;28;20052;-84
2021/05/23 13:13:47;;;;;;;0.10;0.10;;;;;;;;;;5068177;28;20086;-83
2021/05/23 13:16:13;;;;;;;0.10;0.10;;;;;;;;;;5053751;28;20055;-83
2021/05/23 13:18:45;;;;;;;0.10;0.10;;;;;;;;;;5066697;28;20112;-83
2021/05/23 13:21:23;;;;;;;0.10;0.10;;;;;;;;;;5034050;28;20064;-83
2021/05/23 13:23:49;;;;;;;0.20;0.20;;;;;;;;;;5050234;28;20037;-83
2021/05/23 13:26:16;;;;;;;0.30;0.30;;;;;;;;;;5050415;28;20041;-83
2021/05/23 13:28:42;;;;;;;0.30;0.30;;;;;;;;;;5037736;28;20400;-83
2021/05/23 13:31:08;;;;;;;0.20;0.20;;;;;;;;;;5054476;28;20060;-83
2021/05/23 13:33:34;;;;;;;0.10;0.10;;;;;;;;;;5054377;28;20044;-83
2021/05/23 13:36:07;;;;;;;0.10;0.10;;;;;;;;;;5055442;28;20094;-84
2021/05/23 13:38:33;;;;;;;0.10;0.10;;;;;;;;;;5053948;28;20052;-86
2021/05/23 13:41:00;;;;;;;0.10;0.10;;;;;;;;;;5055369;28;20229;-86
2021/05/23 13:43:27;;;;;;;0.17;0.17;;;;;;;;;;5053986;28;20037;-85
2021/05/23 13:45:54;;;;;;;0.10;0.10;;;;;;;;;;5055251;28;20041;-85
2021/05/23 13:48:20;;;;;;;0.13;0.13;;;;;;;;;;5037293;28;20037;-85
2021/05/23 13:50:46;;;;;;;0.10;0.10;;;;;;;;;;5053861;28;20033;-85
2021/05/23 13:53:12;;;;;;;0.10;0.10;;;;;;;;;;5053916;28;20040;-87
2021/05/23 13:55:40;;;;;;;0.10;0.10;;;;;;;;;;5037680;28;20037;-86
2021/05/23 13:58:07;;;;;;;0.10;0.10;;;;;;;;;;5054149;28;20146;-85
2021/05/23 14:00:32;;;;;;;0.20;0.20;;;;;;;;;;5053614;28;20063;-84
2021/05/23 14:03:15;;;;;;;0.10;0.10;;;;;;;;;;5053691;28;20064;-85
2021/05/23 14:05:41;;;;;;;0.10;0.10;;;;;;;;;;5054022;28;20041;-86
2021/05/23 14:08:07;;;;;;;0.10;0.10;;;;;;;;;;5037124;28;20039;-82
2021/05/23 14:10:33;;;;;;;0.10;0.10;;;;;;;;;;5053670;28;20449;-83
2021/05/23 14:12:59;;;;;;;0.10;0.10;;;;;;;;;;5053494;28;20084;-83
2021/05/23 14:15:25;;;;;;;0.10;0.10;;;;;;;;;;5054746;28;20045;-83
2021/05/23 14:17:51;;;;;;;0.10;0.10;;;;;;;;;;5053362;28;20120;-83
2021/05/23 14:20:23;;;;;;;0.10;0.10;;;;;;;;;;5054785;28;20037;-82
2021/05/23 14:22:49;;;;;;;0.10;0.10;;;;;;;;;;5037555;28;20041;-84
2021/05/23 14:25:15;;;;;;;0.10;0.10;;;;;;;;;;5053318;28;20058;-85
2021/05/23 14:27:41;;;;;;;0.13;0.13;;;;;;;;;;5053498;28;20041;-85
2021/05/23 14:30:07;;;;;;;0.10;0.10;;;;;;;;;;5053375;28;20037;-85
2021/05/23 14:32:33;;;;;;;0.10;0.10;;;;;;;;;;5053130;28;20235;-85
2021/05/23 14:34:59;;;;;;;0.10;0.10;;;;;;;;;;5053240;28;20548;-84
2021/05/23 14:37:25;;;;;;;0.10;0.10;;;;;;;;;;5053459;28;20136;-85
2021/05/23 14:39:51;;;;;;;0.10;0.10;;;;;;;;;;5053164;28;20113;-85
2021/05/23 14:42:17;;;;;;;0.10;0.10;;;;;;;;;;5054204;28;20037;-84
2021/05/23 14:44:43;;;;;;;0.10;0.10;;;;;;;;;;5019903;28;20105;-85